sensor_id;sensor_type;location;lat;lon;timestamp;P1;durP1;ratioP1;P2;durP2;ratioP2
1128;SDS011;553;51.038;7.216;2022-08-21T00:01:41;11.17;;;9.20;;
1128;SDS011;553;51.038;7.216;2022-08-21T00:04:09;10.73;;;9.63;;
1128;SDS011;553;51.038;7.216;2022-08-21T00:06:40;14.00;;;10.50;;
1128;SDS011;553;51.038;7.216;2022-08-21T00:09:07;14.03;;;10.33;;
1128;SDS011;553;51.038;7.216;2022-08-21T00:11:35;15.17;;;9.93;;
1128;SDS011;553;51.038;7.216;2022-08-21T00:14:03;15.00;;;11.47;;
1128;SDS011;553;51.038;7.216;2022-08-21T00:16:32;14.23;;;10.27;;
1128;SDS011;553;51.038;7.216;2022-08-21T00:19:00;14.30;;;10.13;;
1128;SDS011;553;51.038;7.216;2022-08-21T00:21:26;14.70;;;9.83;;
1128;SDS011;553;51.038;7.216;2022-08-21T00:23:53;15.47;;;10.27;;
1128;SDS011;553;51.038;7.216;2022-08-21T00:26:20;11.53;;;9.30;;
1128;SDS011;553;51.038;7.216;2022-08-21T00:28:47;13.70;;;9.80;;
1128;SDS011;553;51.038;7.216;2022-08-21T00:31:15;15.60;;;10.00;;
1128;SDS011;553;51.038;7.216;2022-08-21T00:33:42;13.50;;;8.93;;
1128;SDS011;553;51.038;7.216;2022-08-21T00:36:10;14.40;;;9.77;;
1128;SDS011;553;51.038;7.216;2022-08-21T00:38:37;17.70;;;10.37;;
1128;SDS011;553;51.038;7.216;2022-08-21T00:41:07;14.70;;;10.43;;
1128;SDS011;553;51.038;7.216;2022-08-21T00:43:56;11.83;;;9.60;;
1128;SDS011;553;51.038;7.216;2022-08-21T00:46:23;20.20;;;11.30;;
1128;SDS011;553;51.038;7.216;2022-08-21T00:48:53;12.40;;;10.30;;
1128;SDS011;553;51.038;7.216;2022-08-21T00:51:28;11.07;;;8.87;;
1128;SDS011;553;51.038;7.216;2022-08-21T00:54:08;12.50;;;9.23;;
1128;SDS011;553;51.038;7.216;2022-08-21T00:56:44;14.03;;;9.67;;
1128;SDS011;553;51.038;7.216;2022-08-21T00:59:14;18.57;;;10.60;;
1128;SDS011;553;51.038;7.216;2022-08-21T01:01:43;13.93;;;11.10;;
1128;SDS011;553;51.038;7.216;2022-08-21T01:04:10;17.13;;;12.20;;
1128;SDS011;553;51.038;7.216;2022-08-21T01:06:37;17.40;;;10.00;;
1128;SDS011;553;51.038;7.216;2022-08-21T01:09:04;16.50;;;11.70;;
1128;SDS011;553;51.038;7.216;2022-08-21T01:11:31;14.87;;;11.83;;
1128;SDS011;553;51.038;7.216;2022-08-21T01:13:58;17.73;;;11.77;;
1128;SDS011;553;51.038;7.216;2022-08-21T01:16:25;14.47;;;12.20;;
1128;SDS011;553;51.038;7.216;2022-08-21T01:18:51;16.17;;;12.60;;
1128;SDS011;553;51.038;7.216;2022-08-21T01:21:23;14.87;;;11.40;;
1128;SDS011;553;51.038;7.216;2022-08-21T01:23:54;19.70;;;10.93;;
1128;SDS011;553;51.038;7.216;2022-08-21T01:26:23;12.40;;;9.30;;
1128;SDS011;553;51.038;7.216;2022-08-21T01:29:02;16.90;;;9.87;;
1128;SDS011;553;51.038;7.216;2022-08-21T01:31:48;15.17;;;10.03;;
1128;SDS011;553;51.038;7.216;2022-08-21T01:34:15;17.13;;;11.83;;
1128;SDS011;553;51.038;7.216;2022-08-21T01:36:43;16.67;;;12.07;;
1128;SDS011;553;51.038;7.216;2022-08-21T01:39:11;16.97;;;13.23;;
1128;SDS011;553;51.038;7.216;2022-08-21T01:41:38;18.50;;;12.50;;
1128;SDS011;553;51.038;7.216;2022-08-21T01:44:05;17.73;;;12.40;;
1128;SDS011;553;51.038;7.216;2022-08-21T01:46:32;19.13;;;13.40;;
1128;SDS011;553;51.038;7.216;2022-08-21T01:48:59;16.57;;;10.50;;
1128;SDS011;553;51.038;7.216;2022-08-21T01:51:26;18.13;;;11.80;;
1128;SDS011;553;51.038;7.216;2022-08-21T01:53:52;13.80;;;12.20;;
1128;SDS011;553;51.038;7.216;2022-08-21T01:56:19;16.10;;;11.90;;
1128;SDS011;553;51.038;7.216;2022-08-21T01:58:46;20.70;;;12.33;;
1128;SDS011;553;51.038;7.216;2022-08-21T02:01:14;17.47;;;13.20;;
1128;SDS011;553;51.038;7.216;2022-08-21T02:03:41;16.77;;;12.27;;
1128;SDS011;553;51.038;7.216;2022-08-21T02:06:12;15.97;;;12.57;;
1128;SDS011;553;51.038;7.216;2022-08-21T02:08:41;19.23;;;13.40;;
1128;SDS011;553;51.038;7.216;2022-08-21T02:11:07;17.97;;;12.00;;
1128;SDS011;553;51.038;7.216;2022-08-21T02:13:34;14.50;;;11.80;;
1128;SDS011;553;51.038;7.216;2022-08-21T02:16:01;15.73;;;11.40;;
1128;SDS011;553;51.038;7.216;2022-08-21T02:18:28;18.83;;;13.30;;
1128;SDS011;553;51.038;7.216;2022-08-21T02:20:55;21.17;;;14.30;;
1128;SDS011;553;51.038;7.216;2022-08-21T02:23:23;14.53;;;11.33;;
1128;SDS011;553;51.038;7.216;2022-08-21T02:25:59;14.67;;;11.60;;
1128;SDS011;553;51.038;7.216;2022-08-21T02:28:27;17.00;;;12.87;;
1128;SDS011;553;51.038;7.216;2022-08-21T02:30:54;16.73;;;12.13;;
1128;SDS011;553;51.038;7.216;2022-08-21T02:33:22;17.00;;;12.77;;
1128;SDS011;553;51.038;7.216;2022-08-21T02:35:49;14.80;;;13.10;;
1128;SDS011;553;51.038;7.216;2022-08-21T02:38:19;20.17;;;13.43;;
1128;SDS011;553;51.038;7.216;2022-08-21T02:40:49;17.03;;;13.37;;
1128;SDS011;553;51.038;7.216;2022-08-21T02:43:17;21.03;;;12.40;;
1128;SDS011;553;51.038;7.216;2022-08-21T02:45:45;16.83;;;13.60;;
1128;SDS011;553;51.038;7.216;2022-08-21T02:48:14;15.93;;;13.73;;
1128;SDS011;553;51.038;7.216;2022-08-21T02:50:46;18.33;;;13.57;;
1128;SDS011;553;51.038;7.216;2022-08-21T02:53:15;16.13;;;13.43;;
1128;SDS011;553;51.038;7.216;2022-08-21T02:55:46;16.53;;;13.90;;
1128;SDS011;553;51.038;7.216;2022-08-21T02:58:16;17.57;;;13.50;;
1128;SDS011;553;51.038;7.216;2022-08-21T03:00:46;15.80;;;12.87;;
1128;SDS011;553;51.038;7.216;2022-08-21T03:03:13;17.53;;;13.77;;
1128;SDS011;553;51.038;7.216;2022-08-21T03:05:40;15.97;;;13.23;;
1128;SDS011;553;51.038;7.216;2022-08-21T03:08:09;16.77;;;12.37;;
1128;SDS011;553;51.038;7.216;2022-08-21T03:10:38;15.17;;;13.00;;
1128;SDS011;553;51.038;7.216;2022-08-21T03:13:06;15.10;;;11.57;;
1128;SDS011;553;51.038;7.216;2022-08-21T03:15:34;15.00;;;11.60;;
1128;SDS011;553;51.038;7.216;2022-08-21T03:18:01;14.37;;;11.53;;
1128;SDS011;553;51.038;7.216;2022-08-21T03:20:29;14.47;;;12.40;;
1128;SDS011;553;51.038;7.216;2022-08-21T03:22:58;15.80;;;11.50;;
1128;SDS011;553;51.038;7.216;2022-08-21T03:25:26;16.60;;;12.20;;
1128;SDS011;553;51.038;7.216;2022-08-21T03:28:08;18.73;;;12.70;;
1128;SDS011;553;51.038;7.216;2022-08-21T03:30:42;15.70;;;12.20;;
1128;SDS011;553;51.038;7.216;2022-08-21T03:33:10;16.50;;;11.97;;
1128;SDS011;553;51.038;7.216;2022-08-21T03:35:41;18.23;;;13.07;;
1128;SDS011;553;51.038;7.216;2022-08-21T03:38:09;15.07;;;12.87;;
1128;SDS011;553;51.038;7.216;2022-08-21T03:40:36;16.53;;;12.27;;
1128;SDS011;553;51.038;7.216;2022-08-21T03:43:02;14.57;;;11.00;;
1128;SDS011;553;51.038;7.216;2022-08-21T03:45:29;13.70;;;11.10;;
1128;SDS011;553;51.038;7.216;2022-08-21T03:48:00;15.83;;;12.50;;
1128;SDS011;553;51.038;7.216;2022-08-21T03:50:30;19.07;;;15.73;;
1128;SDS011;553;51.038;7.216;2022-08-21T03:53:00;16.60;;;13.03;;
1128;SDS011;553;51.038;7.216;2022-08-21T03:55:27;15.83;;;13.30;;
1128;SDS011;553;51.038;7.216;2022-08-21T03:57:54;17.10;;;11.23;;
1128;SDS011;553;51.038;7.216;2022-08-21T04:00:21;14.27;;;12.10;;
1128;SDS011;553;51.038;7.216;2022-08-21T04:02:49;13.90;;;12.10;;
1128;SDS011;553;51.038;7.216;2022-08-21T04:05:17;15.33;;;12.00;;
1128;SDS011;553;51.038;7.216;2022-08-21T04:07:54;16.70;;;13.33;;
1128;SDS011;553;51.038;7.216;2022-08-21T04:10:22;21.60;;;12.33;;
1128;SDS011;553;51.038;7.216;2022-08-21T04:12:51;14.00;;;11.33;;
1128;SDS011;553;51.038;7.216;2022-08-21T04:15:19;13.23;;;11.53;;
1128;SDS011;553;51.038;7.216;2022-08-21T04:17:46;15.13;;;12.37;;
1128;SDS011;553;51.038;7.216;2022-08-21T04:20:15;13.70;;;12.13;;
1128;SDS011;553;51.038;7.216;2022-08-21T04:22:43;15.30;;;11.73;;
1128;SDS011;553;51.038;7.216;2022-08-21T04:25:11;13.40;;;10.47;;
1128;SDS011;553;51.038;7.216;2022-08-21T04:27:39;15.27;;;11.70;;
1128;SDS011;553;51.038;7.216;2022-08-21T04:30:06;14.67;;;13.07;;
1128;SDS011;553;51.038;7.216;2022-08-21T04:32:38;15.20;;;12.40;;
1128;SDS011;553;51.038;7.216;2022-08-21T04:35:08;14.47;;;11.67;;
1128;SDS011;553;51.038;7.216;2022-08-21T04:37:36;18.77;;;12.30;;
1128;SDS011;553;51.038;7.216;2022-08-21T04:40:08;12.70;;;11.37;;
1128;SDS011;553;51.038;7.216;2022-08-21T04:42:41;19.33;;;12.83;;
1128;SDS011;553;51.038;7.216;2022-08-21T04:45:26;15.50;;;12.20;;
1128;SDS011;553;51.038;7.216;2022-08-21T04:47:56;13.13;;;10.13;;
1128;SDS011;553;51.038;7.216;2022-08-21T04:50:31;17.17;;;11.70;;
1128;SDS011;553;51.038;7.216;2022-08-21T04:53:08;16.27;;;11.70;;
1128;SDS011;553;51.038;7.216;2022-08-21T04:55:42;22.37;;;12.80;;
1128;SDS011;553;51.038;7.216;2022-08-21T04:58:10;18.10;;;13.67;;
1128;SDS011;553;51.038;7.216;2022-08-21T05:00:39;17.80;;;12.43;;
1128;SDS011;553;51.038;7.216;2022-08-21T05:03:06;17.10;;;12.27;;
1128;SDS011;553;51.038;7.216;2022-08-21T05:05:35;20.00;;;14.03;;
1128;SDS011;553;51.038;7.216;2022-08-21T05:08:03;21.70;;;13.10;;
1128;SDS011;553;51.038;7.216;2022-08-21T05:10:30;17.83;;;11.57;;
1128;SDS011;553;51.038;7.216;2022-08-21T05:12:58;18.20;;;12.83;;
1128;SDS011;553;51.038;7.216;2022-08-21T05:15:26;15.70;;;13.17;;
1128;SDS011;553;51.038;7.216;2022-08-21T05:17:53;21.73;;;13.90;;
1128;SDS011;553;51.038;7.216;2022-08-21T05:20:27;20.20;;;15.20;;
1128;SDS011;553;51.038;7.216;2022-08-21T05:22:54;18.20;;;13.00;;
1128;SDS011;553;51.038;7.216;2022-08-21T05:25:21;22.00;;;13.50;;
1128;SDS011;553;51.038;7.216;2022-08-21T05:27:49;18.30;;;14.00;;
1128;SDS011;553;51.038;7.216;2022-08-21T05:30:17;17.80;;;13.93;;
1128;SDS011;553;51.038;7.216;2022-08-21T05:32:45;22.47;;;15.07;;
1128;SDS011;553;51.038;7.216;2022-08-21T05:35:12;19.77;;;14.73;;
1128;SDS011;553;51.038;7.216;2022-08-21T05:37:39;17.03;;;13.67;;
1128;SDS011;553;51.038;7.216;2022-08-21T05:40:06;20.90;;;14.07;;
1128;SDS011;553;51.038;7.216;2022-08-21T05:42:49;20.33;;;15.17;;
1128;SDS011;553;51.038;7.216;2022-08-21T05:45:24;19.27;;;15.17;;
1128;SDS011;553;51.038;7.216;2022-08-21T05:48:30;20.63;;;14.60;;
1128;SDS011;553;51.038;7.216;2022-08-21T05:50:56;16.80;;;13.80;;
1128;SDS011;553;51.038;7.216;2022-08-21T05:53:23;18.07;;;12.63;;
1128;SDS011;553;51.038;7.216;2022-08-21T05:55:51;20.23;;;13.60;;
1128;SDS011;553;51.038;7.216;2022-08-21T05:58:19;22.83;;;16.37;;
1128;SDS011;553;51.038;7.216;2022-08-21T06:00:47;20.10;;;15.33;;
1128;SDS011;553;51.038;7.216;2022-08-21T06:03:19;23.63;;;15.13;;
1128;SDS011;553;51.038;7.216;2022-08-21T06:05:48;21.23;;;15.87;;
1128;SDS011;553;51.038;7.216;2022-08-21T06:08:18;21.20;;;16.50;;
1128;SDS011;553;51.038;7.216;2022-08-21T06:10:46;19.87;;;15.60;;
1128;SDS011;553;51.038;7.216;2022-08-21T06:13:14;29.20;;;16.37;;
1128;SDS011;553;51.038;7.216;2022-08-21T06:15:42;19.37;;;14.57;;
1128;SDS011;553;51.038;7.216;2022-08-21T06:18:09;18.43;;;15.80;;
1128;SDS011;553;51.038;7.216;2022-08-21T06:20:37;20.80;;;15.37;;
1128;SDS011;553;51.038;7.216;2022-08-21T06:23:04;17.67;;;15.07;;
1128;SDS011;553;51.038;7.216;2022-08-21T06:25:31;22.50;;;14.27;;
1128;SDS011;553;51.038;7.216;2022-08-21T06:28:05;20.87;;;12.83;;
1128;SDS011;553;51.038;7.216;2022-08-21T06:30:35;16.40;;;13.67;;
1128;SDS011;553;51.038;7.216;2022-08-21T06:33:04;20.83;;;13.53;;
1128;SDS011;553;51.038;7.216;2022-08-21T06:35:32;19.57;;;13.50;;
1128;SDS011;553;51.038;7.216;2022-08-21T06:38:00;23.00;;;13.90;;
1128;SDS011;553;51.038;7.216;2022-08-21T06:40:27;17.00;;;12.67;;
1128;SDS011;553;51.038;7.216;2022-08-21T06:42:56;19.37;;;11.87;;
1128;SDS011;553;51.038;7.216;2022-08-21T06:45:24;16.43;;;11.07;;
1128;SDS011;553;51.038;7.216;2022-08-21T06:47:57;20.10;;;12.60;;
1128;SDS011;553;51.038;7.216;2022-08-21T06:50:24;13.90;;;11.90;;
1128;SDS011;553;51.038;7.216;2022-08-21T06:52:58;16.30;;;11.80;;
1128;SDS011;553;51.038;7.216;2022-08-21T06:55:32;13.83;;;10.50;;
1128;SDS011;553;51.038;7.216;2022-08-21T06:57:59;19.33;;;12.73;;
1128;SDS011;553;51.038;7.216;2022-08-21T07:00:26;11.73;;;10.43;;
1128;SDS011;553;51.038;7.216;2022-08-21T07:02:53;16.37;;;11.50;;
1128;SDS011;553;51.038;7.216;2022-08-21T07:05:21;14.60;;;11.17;;
1128;SDS011;553;51.038;7.216;2022-08-21T07:07:48;12.97;;;11.00;;
1128;SDS011;553;51.038;7.216;2022-08-21T07:10:14;14.63;;;10.30;;
1128;SDS011;553;51.038;7.216;2022-08-21T07:12:50;14.20;;;9.77;;
1128;SDS011;553;51.038;7.216;2022-08-21T07:15:27;14.77;;;9.97;;
1128;SDS011;553;51.038;7.216;2022-08-21T07:17:56;15.23;;;8.83;;
1128;SDS011;553;51.038;7.216;2022-08-21T07:20:23;11.53;;;9.47;;
1128;SDS011;553;51.038;7.216;2022-08-21T07:22:50;13.50;;;8.20;;
1128;SDS011;553;51.038;7.216;2022-08-21T07:25:17;11.00;;;7.90;;
1128;SDS011;553;51.038;7.216;2022-08-21T07:27:43;15.53;;;7.87;;
1128;SDS011;553;51.038;7.216;2022-08-21T07:30:10;12.97;;;9.10;;
1128;SDS011;553;51.038;7.216;2022-08-21T07:32:37;12.10;;;7.93;;
1128;SDS011;553;51.038;7.216;2022-08-21T07:35:04;10.00;;;7.70;;
1128;SDS011;553;51.038;7.216;2022-08-21T07:37:31;8.57;;;7.17;;
1128;SDS011;553;51.038;7.216;2022-08-21T07:39:58;8.87;;;7.10;;
1128;SDS011;553;51.038;7.216;2022-08-21T07:42:25;11.87;;;6.80;;
1128;SDS011;553;51.038;7.216;2022-08-21T07:44:52;9.83;;;7.57;;
1128;SDS011;553;51.038;7.216;2022-08-21T07:47:21;10.13;;;6.47;;
1128;SDS011;553;51.038;7.216;2022-08-21T07:50:07;9.30;;;7.17;;
1128;SDS011;553;51.038;7.216;2022-08-21T07:52:35;7.53;;;6.73;;
1128;SDS011;553;51.038;7.216;2022-08-21T07:55:02;8.77;;;6.10;;
1128;SDS011;553;51.038;7.216;2022-08-21T07:57:32;10.50;;;5.53;;
1128;SDS011;553;51.038;7.216;2022-08-21T07:59:59;10.17;;;5.97;;
1128;SDS011;553;51.038;7.216;2022-08-21T08:02:26;8.40;;;6.27;;
1128;SDS011;553;51.038;7.216;2022-08-21T08:05:03;12.67;;;5.70;;
1128;SDS011;553;51.038;7.216;2022-08-21T08:07:31;7.67;;;5.23;;
1128;SDS011;553;51.038;7.216;2022-08-21T08:09:58;9.43;;;5.43;;
1128;SDS011;553;51.038;7.216;2022-08-21T08:12:24;8.63;;;4.87;;
1128;SDS011;553;51.038;7.216;2022-08-21T08:14:58;7.00;;;5.83;;
1128;SDS011;553;51.038;7.216;2022-08-21T08:17:26;17.30;;;6.80;;
1128;SDS011;553;51.038;7.216;2022-08-21T08:19:53;9.00;;;4.87;;
1128;SDS011;553;51.038;7.216;2022-08-21T08:22:21;6.97;;;4.43;;
1128;SDS011;553;51.038;7.216;2022-08-21T08:24:50;8.37;;;4.50;;
1128;SDS011;553;51.038;7.216;2022-08-21T08:27:18;7.57;;;3.67;;
1128;SDS011;553;51.038;7.216;2022-08-21T08:29:46;4.30;;;3.30;;
1128;SDS011;553;51.038;7.216;2022-08-21T08:32:13;6.67;;;3.63;;
1128;SDS011;553;51.038;7.216;2022-08-21T08:34:40;9.40;;;3.97;;
1128;SDS011;553;51.038;7.216;2022-08-21T08:37:07;7.13;;;4.20;;
1128;SDS011;553;51.038;7.216;2022-08-21T08:39:35;5.50;;;3.20;;
1128;SDS011;553;51.038;7.216;2022-08-21T08:45:02;9.90;;;3.17;;
1128;SDS011;553;51.038;7.216;2022-08-21T08:47:38;8.30;;;3.10;;
1128;SDS011;553;51.038;7.216;2022-08-21T08:52:48;6.67;;;3.23;;
1128;SDS011;553;51.038;7.216;2022-08-21T08:55:26;9.93;;;3.40;;
1128;SDS011;553;51.038;7.216;2022-08-21T08:57:59;8.83;;;3.47;;
1128;SDS011;553;51.038;7.216;2022-08-21T09:00:28;5.10;;;3.20;;
1128;SDS011;553;51.038;7.216;2022-08-21T09:02:57;7.97;;;3.53;;
1128;SDS011;553;51.038;7.216;2022-08-21T09:11:23;8.47;;;3.70;;
1128;SDS011;553;51.038;7.216;2022-08-21T09:14:14;6.70;;;3.20;;
1128;SDS011;553;51.038;7.216;2022-08-21T09:16:47;7.00;;;3.03;;
1128;SDS011;553;51.038;7.216;2022-08-21T09:22:16;8.43;;;4.10;;
1128;SDS011;553;51.038;7.216;2022-08-21T09:25:02;8.50;;;3.17;;
1128;SDS011;553;51.038;7.216;2022-08-21T09:27:49;7.57;;;3.40;;
1128;SDS011;553;51.038;7.216;2022-08-21T09:30:17;6.77;;;3.90;;
1128;SDS011;553;51.038;7.216;2022-08-21T09:32:45;9.10;;;3.23;;
1128;SDS011;553;51.038;7.216;2022-08-21T09:35:16;7.57;;;3.90;;
1128;SDS011;553;51.038;7.216;2022-08-21T09:40:30;7.13;;;3.90;;
1128;SDS011;553;51.038;7.216;2022-08-21T09:43:06;10.03;;;3.67;;
1128;SDS011;553;51.038;7.216;2022-08-21T09:45:49;6.30;;;3.83;;
1128;SDS011;553;51.038;7.216;2022-08-21T09:48:43;7.83;;;3.30;;
1128;SDS011;553;51.038;7.216;2022-08-21T09:51:14;10.23;;;3.60;;
1128;SDS011;553;51.038;7.216;2022-08-21T09:53:48;5.10;;;3.43;;
1128;SDS011;553;51.038;7.216;2022-08-21T09:56:19;5.97;;;3.00;;
1128;SDS011;553;51.038;7.216;2022-08-21T09:59:13;7.17;;;2.97;;
1128;SDS011;553;51.038;7.216;2022-08-21T10:05:00;5.97;;;2.80;;
1128;SDS011;553;51.038;7.216;2022-08-21T10:07:31;4.23;;;2.73;;
1128;SDS011;553;51.038;7.216;2022-08-21T10:10:00;5.47;;;2.67;;
1128;SDS011;553;51.038;7.216;2022-08-21T10:12:35;5.97;;;2.87;;
1128;SDS011;553;51.038;7.216;2022-08-21T10:18:43;6.27;;;2.90;;
1128;SDS011;553;51.038;7.216;2022-08-21T10:31:35;3.40;;;1.80;;
1128;SDS011;553;51.038;7.216;2022-08-21T10:39:49;4.37;;;2.50;;
1128;SDS011;553;51.038;7.216;2022-08-21T10:47:34;3.83;;;2.20;;
1128;SDS011;553;51.038;7.216;2022-08-21T10:50:11;4.50;;;2.17;;
1128;SDS011;553;51.038;7.216;2022-08-21T10:58:43;6.93;;;2.40;;
1128;SDS011;553;51.038;7.216;2022-08-21T11:01:12;5.93;;;2.37;;
1128;SDS011;553;51.038;7.216;2022-08-21T11:09:47;5.00;;;2.40;;
1128;SDS011;553;51.038;7.216;2022-08-21T11:12:27;4.90;;;2.20;;
1128;SDS011;553;51.038;7.216;2022-08-21T11:18:01;9.10;;;2.20;;
1128;SDS011;553;51.038;7.216;2022-08-21T11:20:56;6.27;;;2.83;;
1128;SDS011;553;51.038;7.216;2022-08-21T11:26:13;5.83;;;1.93;;
1128;SDS011;553;51.038;7.216;2022-08-21T11:28:50;6.30;;;2.40;;
1128;SDS011;553;51.038;7.216;2022-08-21T11:31:25;3.00;;;1.70;;
1128;SDS011;553;51.038;7.216;2022-08-21T11:37:07;6.20;;;2.27;;
1128;SDS011;553;51.038;7.216;2022-08-21T11:45:14;10.57;;;2.40;;
1128;SDS011;553;51.038;7.216;2022-08-21T11:50:50;5.60;;;2.30;;
1128;SDS011;553;51.038;7.216;2022-08-21T11:53:28;5.30;;;1.83;;
1128;SDS011;553;51.038;7.216;2022-08-21T11:56:11;4.80;;;1.70;;
1128;SDS011;553;51.038;7.216;2022-08-21T11:59:11;5.53;;;2.10;;
1128;SDS011;553;51.038;7.216;2022-08-21T12:01:47;4.33;;;1.93;;
1128;SDS011;553;51.038;7.216;2022-08-21T12:04:18;4.27;;;1.87;;
1128;SDS011;553;51.038;7.216;2022-08-21T12:07:10;3.60;;;2.10;;
1128;SDS011;553;51.038;7.216;2022-08-21T12:09:39;4.03;;;1.83;;
1128;SDS011;553;51.038;7.216;2022-08-21T12:12:21;5.03;;;1.87;;
1128;SDS011;553;51.038;7.216;2022-08-21T12:14:49;4.97;;;2.10;;
1128;SDS011;553;51.038;7.216;2022-08-21T12:17:22;3.33;;;1.97;;
1128;SDS011;553;51.038;7.216;2022-08-21T12:20:02;5.37;;;1.97;;
1128;SDS011;553;51.038;7.216;2022-08-21T12:22:52;6.17;;;2.07;;
1128;SDS011;553;51.038;7.216;2022-08-21T12:25:21;2.83;;;1.47;;
1128;SDS011;553;51.038;7.216;2022-08-21T12:27:53;5.83;;;2.20;;
1128;SDS011;553;51.038;7.216;2022-08-21T12:30:37;2.70;;;1.60;;
1128;SDS011;553;51.038;7.216;2022-08-21T12:33:17;6.27;;;2.50;;
1128;SDS011;553;51.038;7.216;2022-08-21T12:35:45;5.00;;;2.07;;
1128;SDS011;553;51.038;7.216;2022-08-21T12:38:20;7.70;;;2.40;;
1128;SDS011;553;51.038;7.216;2022-08-21T12:41:04;4.00;;;2.00;;
1128;SDS011;553;51.038;7.216;2022-08-21T12:43:42;4.67;;;1.80;;
1128;SDS011;553;51.038;7.216;2022-08-21T12:46:17;3.70;;;1.80;;
1128;SDS011;553;51.038;7.216;2022-08-21T12:49:03;5.70;;;1.90;;
1128;SDS011;553;51.038;7.216;2022-08-21T12:51:50;3.40;;;1.67;;
1128;SDS011;553;51.038;7.216;2022-08-21T12:54:28;4.97;;;1.97;;
1128;SDS011;553;51.038;7.216;2022-08-21T12:56:58;2.73;;;1.50;;
1128;SDS011;553;51.038;7.216;2022-08-21T12:59:30;3.83;;;1.60;;
1128;SDS011;553;51.038;7.216;2022-08-21T13:01:59;4.23;;;1.83;;
1128;SDS011;553;51.038;7.216;2022-08-21T13:04:36;3.97;;;1.53;;
1128;SDS011;553;51.038;7.216;2022-08-21T13:07:10;5.20;;;2.20;;
1128;SDS011;553;51.038;7.216;2022-08-21T13:09:49;3.20;;;1.77;;
1128;SDS011;553;51.038;7.216;2022-08-21T13:12:20;3.73;;;1.63;;
1128;SDS011;553;51.038;7.216;2022-08-21T13:14:55;5.67;;;1.80;;
1128;SDS011;553;51.038;7.216;2022-08-21T13:17:23;3.90;;;1.53;;
1128;SDS011;553;51.038;7.216;2022-08-21T13:19:53;4.40;;;1.60;;
1128;SDS011;553;51.038;7.216;2022-08-21T13:22:20;6.37;;;1.80;;
1128;SDS011;553;51.038;7.216;2022-08-21T13:24:59;3.87;;;1.60;;
1128;SDS011;553;51.038;7.216;2022-08-21T13:27:32;4.03;;;1.60;;
1128;SDS011;553;51.038;7.216;2022-08-21T13:30:01;3.80;;;1.90;;
1128;SDS011;553;51.038;7.216;2022-08-21T13:32:46;2.43;;;1.63;;
1128;SDS011;553;51.038;7.216;2022-08-21T13:35:36;5.63;;;1.77;;
1128;SDS011;553;51.038;7.216;2022-08-21T13:38:13;6.40;;;2.13;;
1128;SDS011;553;51.038;7.216;2022-08-21T13:40:44;3.57;;;1.70;;
1128;SDS011;553;51.038;7.216;2022-08-21T13:43:15;3.70;;;1.60;;
1128;SDS011;553;51.038;7.216;2022-08-21T13:45:51;5.53;;;1.80;;
1128;SDS011;553;51.038;7.216;2022-08-21T13:48:19;3.63;;;1.33;;
1128;SDS011;553;51.038;7.216;2022-08-21T13:50:47;2.57;;;1.60;;
1128;SDS011;553;51.038;7.216;2022-08-21T13:55:58;6.20;;;2.37;;
1128;SDS011;553;51.038;7.216;2022-08-21T14:04:20;1.97;;;1.40;;
1128;SDS011;553;51.038;7.216;2022-08-21T14:06:50;3.30;;;1.60;;
1128;SDS011;553;51.038;7.216;2022-08-21T14:09:24;5.50;;;1.90;;
1128;SDS011;553;51.038;7.216;2022-08-21T14:12:02;4.57;;;1.63;;
1128;SDS011;553;51.038;7.216;2022-08-21T14:14:49;5.77;;;1.60;;
1128;SDS011;553;51.038;7.216;2022-08-21T14:17:27;3.20;;;1.30;;
1128;SDS011;553;51.038;7.216;2022-08-21T14:19:59;5.00;;;2.07;;
1128;SDS011;553;51.038;7.216;2022-08-21T14:27:50;5.30;;;1.80;;
1128;SDS011;553;51.038;7.216;2022-08-21T14:32:53;2.90;;;1.70;;
1128;SDS011;553;51.038;7.216;2022-08-21T14:35:20;2.77;;;1.70;;
1128;SDS011;553;51.038;7.216;2022-08-21T14:37:49;3.43;;;1.67;;
1128;SDS011;553;51.038;7.216;2022-08-21T14:40:17;4.00;;;1.50;;
1128;SDS011;553;51.038;7.216;2022-08-21T14:42:46;5.70;;;1.80;;
1128;SDS011;553;51.038;7.216;2022-08-21T14:47:53;3.77;;;1.63;;
1128;SDS011;553;51.038;7.216;2022-08-21T14:50:21;6.67;;;4.17;;
1128;SDS011;553;51.038;7.216;2022-08-21T14:52:48;4.57;;;1.87;;
1128;SDS011;553;51.038;7.216;2022-08-21T14:55:15;6.00;;;1.67;;
1128;SDS011;553;51.038;7.216;2022-08-21T14:57:45;7.70;;;6.00;;
1128;SDS011;553;51.038;7.216;2022-08-21T15:00:15;4.20;;;2.97;;
1128;SDS011;553;51.038;7.216;2022-08-21T15:02:44;3.80;;;1.87;;
1128;SDS011;553;51.038;7.216;2022-08-21T15:05:11;5.10;;;1.53;;
1128;SDS011;553;51.038;7.216;2022-08-21T15:07:41;3.70;;;1.80;;
1128;SDS011;553;51.038;7.216;2022-08-21T15:10:08;5.60;;;1.87;;
1128;SDS011;553;51.038;7.216;2022-08-21T15:12:35;3.00;;;1.50;;
1128;SDS011;553;51.038;7.216;2022-08-21T15:15:03;4.20;;;1.53;;
1128;SDS011;553;51.038;7.216;2022-08-21T15:17:31;3.83;;;1.80;;
1128;SDS011;553;51.038;7.216;2022-08-21T15:19:58;4.80;;;2.60;;
1128;SDS011;553;51.038;7.216;2022-08-21T15:22:26;6.90;;;2.07;;
1128;SDS011;553;51.038;7.216;2022-08-21T15:24:54;6.00;;;3.40;;
1128;SDS011;553;51.038;7.216;2022-08-21T15:27:21;4.13;;;2.10;;
1128;SDS011;553;51.038;7.216;2022-08-21T15:29:48;8.40;;;4.63;;
1128;SDS011;553;51.038;7.216;2022-08-21T15:32:19;4.10;;;1.93;;
1128;SDS011;553;51.038;7.216;2022-08-21T15:34:49;3.70;;;1.90;;
1128;SDS011;553;51.038;7.216;2022-08-21T15:37:18;7.27;;;2.03;;
1128;SDS011;553;51.038;7.216;2022-08-21T15:39:45;4.33;;;1.67;;
1128;SDS011;553;51.038;7.216;2022-08-21T15:42:18;6.93;;;1.90;;
1128;SDS011;553;51.038;7.216;2022-08-21T15:44:46;3.80;;;1.50;;
1128;SDS011;553;51.038;7.216;2022-08-21T15:47:14;2.87;;;1.47;;
1128;SDS011;553;51.038;7.216;2022-08-21T15:49:43;3.73;;;2.17;;
1128;SDS011;553;51.038;7.216;2022-08-21T15:52:12;4.30;;;1.83;;
1128;SDS011;553;51.038;7.216;2022-08-21T15:54:44;6.00;;;1.87;;
1128;SDS011;553;51.038;7.216;2022-08-21T15:57:12;7.23;;;1.73;;
1128;SDS011;553;51.038;7.216;2022-08-21T15:59:41;5.50;;;1.97;;
1128;SDS011;553;51.038;7.216;2022-08-21T16:02:12;5.50;;;2.10;;
1128;SDS011;553;51.038;7.216;2022-08-21T16:04:41;5.70;;;2.10;;
1128;SDS011;553;51.038;7.216;2022-08-21T16:07:08;2.90;;;2.33;;
1128;SDS011;553;51.038;7.216;2022-08-21T16:09:36;5.97;;;3.07;;
1128;SDS011;553;51.038;7.216;2022-08-21T16:12:03;3.17;;;1.50;;
1128;SDS011;553;51.038;7.216;2022-08-21T16:14:32;5.33;;;2.10;;
1128;SDS011;553;51.038;7.216;2022-08-21T16:17:06;2.43;;;1.60;;
1128;SDS011;553;51.038;7.216;2022-08-21T16:19:33;4.00;;;1.03;;
1128;SDS011;553;51.038;7.216;2022-08-21T16:22:02;3.67;;;1.40;;
1128;SDS011;553;51.038;7.216;2022-08-21T16:24:29;3.10;;;1.27;;
1128;SDS011;553;51.038;7.216;2022-08-21T16:26:56;6.30;;;1.50;;
1128;SDS011;553;51.038;7.216;2022-08-21T16:29:24;4.63;;;1.53;;
1128;SDS011;553;51.038;7.216;2022-08-21T16:31:54;2.60;;;1.40;;
1128;SDS011;553;51.038;7.216;2022-08-21T16:34:21;3.97;;;1.30;;
1128;SDS011;553;51.038;7.216;2022-08-21T16:36:48;1.97;;;1.17;;
1128;SDS011;553;51.038;7.216;2022-08-21T16:39:14;5.70;;;1.40;;
1128;SDS011;553;51.038;7.216;2022-08-21T16:41:41;2.37;;;1.40;;
1128;SDS011;553;51.038;7.216;2022-08-21T16:44:08;4.30;;;1.60;;
1128;SDS011;553;51.038;7.216;2022-08-21T16:46:37;2.63;;;1.60;;
1128;SDS011;553;51.038;7.216;2022-08-21T16:49:06;5.33;;;1.70;;
1128;SDS011;553;51.038;7.216;2022-08-21T16:51:33;2.87;;;1.60;;
1128;SDS011;553;51.038;7.216;2022-08-21T16:54:00;3.47;;;1.53;;
1128;SDS011;553;51.038;7.216;2022-08-21T16:56:27;1.73;;;1.20;;
1128;SDS011;553;51.038;7.216;2022-08-21T16:58:55;8.83;;;1.87;;
1128;SDS011;553;51.038;7.216;2022-08-21T17:01:28;2.07;;;1.20;;
1128;SDS011;553;51.038;7.216;2022-08-21T17:03:58;3.40;;;1.53;;
1128;SDS011;553;51.038;7.216;2022-08-21T17:06:25;3.63;;;1.60;;
1128;SDS011;553;51.038;7.216;2022-08-21T17:08:54;3.70;;;1.10;;
1128;SDS011;553;51.038;7.216;2022-08-21T17:11:25;2.33;;;1.20;;
1128;SDS011;553;51.038;7.216;2022-08-21T17:14:07;4.00;;;1.57;;